Thursday, July 19, 2018, 1:30 PM EDT
Back to Local

KRDG, Reading Regional Airport

Location: Reading, PA, United States Lat: 40.367
Local Time: 1:30 PM EDT (17:30 GMT) Lon: -75.967
Time Zone: US/Eastern Elev: 344 ft

Show me the last for .
Show Decoded

2018-07-19 12:54 METAR KRDG 191654Z VRB03KT 10SM CLR 26/12 A3010 RMK AO2 SLP194 T02560122 =
2018-07-19 11:54 METAR KRDG 191554Z VRB05KT 10SM CLR 25/12 A3011 RMK AO2 SLP198 T02500122 =
2018-07-19 10:54 METAR KRDG 191454Z VRB04KT 10SM CLR 24/13 A3010 RMK AO2 SLP196 T02390133 50003 =
2018-07-19 09:54 METAR KRDG 191354Z 36005KT 10SM CLR 22/12 A3011 RMK AO2 SLP199 T02170122 =
2018-07-19 08:54 METAR KRDG 191254Z 34005KT 10SM CLR 20/12 A3011 RMK AO2 SLP198 T02000117 =
2018-07-19 07:54 METAR KRDG 191154Z 34005KT 10SM CLR 18/13 A3010 RMK AO2 SLP193 T01830128 10189
                 20139 51012 =
2018-07-19 06:54 METAR KRDG 191054Z 00000KT 10SM CLR 16/14 A3009 RMK AO2 SLP192 T01560139 =
2018-07-19 05:54 METAR KRDG 190954Z 34003KT 10SM CLR 14/13 A3007 RMK AO2 SLP186 T01390133 =
2018-07-19 04:54 METAR KRDG 190854Z AUTO 00000KT 10SM CLR 15/14 A3006 RMK AO2 SLP182 T01500144
                 51007 =
2018-07-19 03:54 METAR KRDG 190754Z AUTO 32003KT 10SM CLR 16/13 A3005 RMK AO2 SLP179 T01560133 =
2018-07-19 02:54 METAR KRDG 190654Z AUTO 00000KT 10SM CLR 18/13 A3005 RMK AO2 SLP178 T01780133 =
2018-07-19 01:54 METAR KRDG 190554Z AUTO 00000KT 10SM CLR 19/13 A3004 RMK AO2 SLP173 T01890133
                 10256 20183 53015 =
2018-07-19 00:54 METAR KRDG 190454Z AUTO 00000KT 10SM CLR 19/14 A3002 RMK AO2 SLP169 T01940139
                 402890183 =
2018-07-18 23:54 METAR KRDG 190354Z AUTO 35003KT 10SM CLR 19/15 A3000 RMK AO2 SLP162 T01940150 =
2018-07-18 22:54 METAR KRDG 190254Z 01003KT 10SM CLR 21/16 A2999 RMK AO2 SLP158 T02060156 51017 =
2018-07-18 21:54 METAR KRDG 190154Z 00000KT 10SM CLR 22/16 A2998 RMK AO2 SLP154 T02220156 =
2018-07-18 20:54 METAR KRDG 190054Z 36003KT 10SM CLR 24/15 A2996 RMK AO2 SLP146 T02390150 =
2018-07-18 19:54 METAR KRDG 182354Z 35006KT 10SM CLR 26/15 A2994 RMK AO2 SLP141 T02560150 10289
                 20256 53005 =
2018-07-18 18:54 METAR KRDG 182254Z 33009KT 10SM CLR 27/14 A2993 RMK AO2 SLP137 T02720139 =
2018-07-18 17:54 METAR KRDG 182154Z 33008KT 10SM CLR 28/13 A2992 RMK AO2 SLP135 T02780133 =
2018-07-18 16:54 METAR KRDG 182054Z 34008KT 10SM FEW060 28/14 A2993 RMK AO2 SLP136 T02780144
                 58004 =
2018-07-18 15:54 METAR KRDG 181954Z 02011KT 10SM FEW085 28/15 A2993 RMK AO2 SLP137 T02830150 =
2018-07-18 14:54 METAR KRDG 181854Z 02008KT 10SM FEW070 FEW090 28/14 A2994 RMK AO2 SLP139
                 T02780144 =
2018-07-18 13:54 METAR KRDG 181754Z 34007KT 10SM SCT047 28/15 A2994 RMK AO2 SLP139 T02830150
                 10283 20217 56004 =

Support USWX by starting your Amazon purchase here.